Aviation Digital Data Service (ADDS)

Output produced by METARs form (1955 UTC 31 January 2023)
found at http://www.aviationweather.gov/metar/data/
 
KMDT 311856Z 33010KT 10SM FEW039 FEW047 OVC060 03/M04 A3020 RMK AO2 SNB06E15 SLP229 P0000 T00331044
KMDT 311756Z 30008KT 10SM SCT050 OVC070 03/M03 A3022 RMK AO2 SLP235 60000 T00331033 10039 20028 58010
KMDT 311656Z 34008KT 10SM BKN037 OVC070 03/M04 A3023 RMK AO2 SNB26E45 SLP239 P0000 T00331039
KMDT 311556Z 33010KT 10SM SCT070 BKN090 OVC100 03/M04 A3024 RMK AO2 SLP244 T00331039
KMDT 311456Z 33006KT 10SM FEW035 BKN070 BKN085 03/M04 A3025 RMK AO2 SLP246 T00331039 51015
KMDT 311356Z 34007KT 10SM OVC080 03/M03 A3023 RMK AO2 SLP241 T00281028
KMDT 311256Z 32009KT 10SM OVC080 03/M03 A3023 RMK AO2 SLP240 T00281028
KMDT 311156Z 36004KT 10SM FEW026 BKN060 OVC085 03/00 A3020 RMK AO2 SLP229 60000 T00330000 10083 20028 53029
KMDT 311117Z 35008KT 10SM SCT025 OVC060 03/00 A3018 RMK AO2 T00330000
KMDT 311056Z 35010KT 10SM OVC025 03/01 A3016 RMK AO2 RAB14E35 SLP216 P0000 T00330006
KMDT 311007Z 33009KT 10SM BKN020 OVC041 04/02 A3014 RMK AO2 T00390022
KMDT 310956Z 32008KT 10SM SCT017 SCT023 OVC041 04/02 A3014 RMK AO2 RAE39 SLP209 P0000 T00390022
KMDT 310941Z 32008KT 8SM BKN017 BKN023 OVC040 04/02 A3013 RMK AO2 RAE39 P0000 T00390022
KMDT 310856Z 32012KT 6SM -RA BR OVC038 04/02 A3012 RMK AO2 RAB22 SLP200 P0000 60000 T00390022 53018
KMDT 310812Z 34009KT 10SM FEW020 OVC030 06/02 A3010 RMK AO2 T00610017
KMDT 310756Z 34011KT 10SM FEW022 OVC029 07/02 A3009 RMK AO2 SLP190 T00670022
KMDT 310721Z 34007KT 10SM BKN027 OVC036 08/02 A3007 RMK AO2 T00780022
KMDT 310656Z 34010KT 10SM FEW027 OVC039 08/03 A3007 RMK AO2 SLP184 T00830033
KMDT 310556Z 29006KT 10SM OVC049 08/04 A3006 RMK AO2 SLP182 T00780044 10111 20050 55003
KMDT 310456Z 00000KT 10SM FEW042 BKN075 09/04 A3005 RMK AO2 SLP179 T00940044 401220011
KMDT 310356Z 00000KT 10SM OVC046 10/05 A3007 RMK AO2 SLP184 T01000050
KMDT 310256Z 00000KT 10SM BKN042 OVC060 09/04 A3007 RMK AO2 SLP185 T00890044 50002
KMDT 310156Z 32003KT 10SM BKN041 OVC048 09/04 A3008 RMK AO2 SLP188 T00940044
KMDT 310056Z 24005KT 10SM FEW050 BKN070 BKN110 10/04 A3007 RMK AO2 SLP184 T01000044
KMDT 302256Z 20005KT 10SM FEW050 BKN095 10/04 A3006 RMK AO2 SLP183 T01000044
KMDT 302156Z COR 22003KT 10SM FEW038 BKN060 11/04 A3009 RMK AO2 SLP190 T01110044
KMDT 302056Z 26008G18KT 10SM BKN036 12/04 A3007 RMK AO2 SLP185 T01170044 55014
KMDT 301956Z 00000KT 10SM FEW040 12/04 A3005 RMK AO2 SLP178 T01170044
KMDT 301856Z 20007KT 10SM FEW038 11/04 A3007 RMK AO2 PRESFR SLP183 T01110044
KMDT 301756Z 21009KT 10SM BKN044 10/04 A3011 RMK AO2 SLP199 T01000044 10100 20017 58025
KMDT 301656Z 22005KT 10SM OVC045 08/04 A3016 RMK AO2 SLP215 T00830039
KMDT 301556Z 22010KT 10SM OVC045 08/03 A3018 RMK AO2 SLP223 T00780033
KMDT 301456Z 13005KT 9SM FEW080 06/03 A3019 RMK AO2 SLP225 T00610028 53009
KMDT 301356Z 11006KT 8SM CLR 05/03 A3018 RMK AO2 SLP221 T00500033
KMDT 301256Z 10006KT 5SM BR FEW050 03/02 A3016 RMK AO2 SLP216 T00280017
KMDT 301156Z 10005KT 7SM BKN060 03/02 A3016 RMK AO2 SLP216 T00280017 10056 20011 58004
KMDT 301056Z 00000KT 8SM BKN050 02/01 A3017 RMK AO2 SLP218 T00220011
KMDT 300956Z 00000KT 10SM OVC049 03/02 A3017 RMK AO2 SLP218 T00330017
KMDT 300856Z 00000KT 10SM OVC049 03/02 A3017 RMK AO2 SLP220 T00330017 53001
KMDT 300756Z 10003KT 10SM SCT049 OVC060 04/02 A3016 RMK AO2 SLP217 T00440017
KMDT 311722Z 3118/0118 33007KT P6SM BKN035 OVC070 
     FM010500 33005KT 6SM -SN BR OVC035 
     FM011200 32008KT P6SM BKN035